Time;durP1;ratioP1;P1;durP2;ratioP2;P2;SDS_P1;SDS_P2;PMS_P1;PMS_P2;Temp;Humidity;BMP_temperature;BMP_pressure;BME280_temperature;BME280_humidity;BME280_pressure;Samples;Min_cycle;Max_cycle;Signal;HPM_P1;HPM_P2
2024/02/29 00:02:26;;;;;;;34.13;23.73;;;7.20;99.90;;;;;;4973898;28;20042;-70
2024/02/29 00:04:53;;;;;;;31.20;18.88;;;7.10;99.90;;;;;;4974991;28;20511;-71
2024/02/29 00:07:21;;;;;;;27.52;16.38;;;7.00;99.90;;;;;;4973820;28;20157;-70
2024/02/29 00:09:48;;;;;;;28.38;16.15;;;6.90;99.90;;;;;;4989697;28;20408;-70
2024/02/29 00:12:15;;;;;;;40.60;19.83;;;6.80;99.90;;;;;;4975033;28;20057;-70
2024/02/29 00:14:42;;;;;;;24.90;15.18;;;6.70;99.90;;;;;;4973546;28;20104;-71
2024/02/29 00:17:10;;;;;;;30.13;18.50;;;6.60;99.90;;;;;;5005989;28;20065;-71
2024/02/29 00:19:37;;;;;;;37.05;20.63;;;6.60;99.90;;;;;;4974866;28;20448;-71
2024/02/29 00:22:04;;;;;;;26.65;13.90;;;6.50;99.90;;;;;;4989906;28;20058;-71
2024/02/29 00:24:31;;;;;;;25.63;13.40;;;6.50;99.90;;;;;;4973655;28;20111;-70
2024/02/29 00:26:58;;;;;;;37.05;24.73;;;6.40;99.90;;;;;;5005933;28;20043;-70
2024/02/29 00:29:28;;;;;;;29.25;18.48;;;6.40;99.90;;;;;;4974833;28;20105;-71
2024/02/29 00:32:00;;;;;;;36.05;25.13;;;6.30;99.90;;;;;;5004365;28;20042;-71
2024/02/29 00:34:30;;;;;;;19.02;11.13;;;6.30;99.90;;;;;;4974717;28;20050;-70
2024/02/29 00:36:57;;;;;;;25.23;17.42;;;6.30;99.90;;;;;;4974327;28;20451;-71
2024/02/29 00:39:24;;;;;;;29.42;16.50;;;6.30;99.90;;;;;;4989499;28;20066;-71
2024/02/29 00:41:52;;;;;;;28.27;19.42;;;6.30;99.90;;;;;;4974345;28;20055;-70
2024/02/29 00:44:19;;;;;;;26.77;16.38;;;6.20;99.90;;;;;;4989382;28;20097;-71
2024/02/29 00:46:46;;;;;;;23.85;13.35;;;6.20;99.90;;;;;;4974247;28;20101;-71
2024/02/29 00:49:16;;;;;;;29.60;18.55;;;6.20;99.90;;;;;;5005481;28;20062;-71
2024/02/29 00:51:43;;;;;;;30.27;18.88;;;6.20;99.90;;;;;;4989039;28;20038;-71
2024/02/29 00:54:10;;;;;;;26.08;15.82;;;6.20;99.90;;;;;;4974290;28;20046;-71
2024/02/29 00:56:37;;;;;;;29.02;18.85;;;6.20;99.90;;;;;;4989081;28;20047;-71
2024/02/29 00:59:04;;;;;;;23.55;12.55;;;6.10;99.90;;;;;;4973049;28;20059;-69
2024/02/29 01:01:31;;;;;;;22.63;14.38;;;6.20;99.90;;;;;;4973693;28;20049;-70
2024/02/29 01:03:58;;;;;;;36.55;27.80;;;6.10;99.90;;;;;;4972615;28;20248;-69
2024/02/29 01:06:25;;;;;;;39.33;27.10;;;6.00;99.90;;;;;;4974144;28;20459;-69
2024/02/29 01:08:52;;;;;;;37.67;18.50;;;6.00;99.90;;;;;;4973915;28;20539;-70
2024/02/29 01:11:19;;;;;;;31.05;18.60;;;6.00;99.90;;;;;;4972812;28;20492;-69
2024/02/29 01:13:46;;;;;;;34.60;23.85;;;6.00;99.90;;;;;;4988621;28;20051;-69
2024/02/29 01:16:13;;;;;;;28.33;15.85;;;6.00;99.90;;;;;;4988655;28;20506;-69
2024/02/29 01:18:40;;;;;;;20.55;11.18;;;6.00;99.90;;;;;;4973945;28;20066;-70
2024/02/29 01:21:07;;;;;;;33.85;20.70;;;6.00;99.90;;;;;;4972646;28;20395;-70
2024/02/29 01:23:34;;;;;;;42.80;30.23;;;6.00;99.90;;;;;;4973830;28;20038;-69
2024/02/29 01:26:01;;;;;;;31.35;16.63;;;5.90;99.90;;;;;;4973629;28;20105;-70
2024/02/29 01:28:28;;;;;;;26.73;15.65;;;5.90;99.90;;;;;;4973793;28;20120;-69
2024/02/29 01:30:55;;;;;;;29.45;17.98;;;5.90;99.90;;;;;;4988428;28;20097;-69
2024/02/29 01:33:22;;;;;;;37.75;23.08;;;5.90;99.90;;;;;;4988349;28;20109;-69
2024/02/29 01:35:49;;;;;;;27.55;17.23;;;5.80;99.90;;;;;;5004637;28;20110;-69
2024/02/29 01:38:16;;;;;;;25.73;16.92;;;5.80;99.90;;;;;;4988661;28;20054;-70
2024/02/29 01:40:46;;;;;;;30.70;15.00;;;6.00;99.90;;;;;;4973523;28;20070;-70
2024/02/29 01:43:13;;;;;;;25.42;15.50;;;5.80;99.90;;;;;;4988626;28;20554;-69
2024/02/29 01:45:40;;;;;;;26.15;18.42;;;5.90;99.90;;;;;;4988605;28;20073;-70
2024/02/29 01:48:08;;;;;;;26.30;15.75;;;5.80;99.90;;;;;;4973446;28;20046;-69
2024/02/29 01:50:37;;;;;;;39.03;29.85;;;5.80;99.90;;;;;;4988514;28;20397;-69
2024/02/29 01:53:04;;;;;;;21.38;13.05;;;5.80;99.90;;;;;;4956036;28;20072;-69
2024/02/29 01:55:31;;;;;;;26.77;13.27;;;5.80;99.90;;;;;;4973489;28;20047;-70
2024/02/29 01:58:03;;;;;;;35.60;22.25;;;5.80;99.90;;;;;;4972046;28;20077;-70
2024/02/29 02:00:30;;;;;;;24.15;15.88;;;5.80;99.90;;;;;;4988267;28;20109;-69
2024/02/29 02:02:57;;;;;;;22.30;12.15;;;5.80;99.90;;;;;;4973209;28;20034;-69
2024/02/29 02:05:24;;;;;;;20.90;15.68;;;5.80;99.90;;;;;;4988319;28;20468;-69
2024/02/29 02:07:51;;;;;;;22.85;14.90;;;5.80;99.90;;;;;;4972081;28;20126;-70
2024/02/29 02:10:18;;;;;;;23.52;13.15;;;5.80;99.90;;;;;;4973461;28;20054;-70
2024/02/29 02:12:47;;;;;;;24.52;13.98;;;6.00;99.90;;;;;;4988380;28;20047;-69
2024/02/29 02:15:14;;;;;;;25.75;17.38;;;5.80;99.90;;;;;;4975999;28;20057;-69
2024/02/29 02:17:42;;;;;;;20.27;12.50;;;5.80;99.90;;;;;;4977068;28;20129;-69
2024/02/29 02:20:16;;;;;;;21.98;12.88;;;5.90;99.90;;;;;;4976983;28;20046;-70
2024/02/29 02:22:43;;;;;;;28.23;19.33;;;6.00;99.90;;;;;;4975854;28;20102;-70
2024/02/29 02:25:10;;;;;;;19.55;11.85;;;6.00;99.90;;;;;;4975610;28;20097;-69
2024/02/29 02:27:38;;;;;;;23.02;14.93;;;6.10;99.90;;;;;;5008152;28;20427;-69
2024/02/29 02:30:07;;;;;;;21.77;15.15;;;6.20;99.90;;;;;;4976752;28;20395;-69
2024/02/29 02:32:37;;;;;;;27.25;18.40;;;6.30;99.90;;;;;;5005413;28;20059;-70
2024/02/29 02:35:05;;;;;;;27.33;16.85;;;6.30;99.90;;;;;;4991315;28;20047;-70
2024/02/29 02:37:36;;;;;;;23.05;15.27;;;6.30;99.90;;;;;;4975530;28;20101;-69
2024/02/29 02:40:07;;;;;;;24.73;18.50;;;6.30;99.90;;;;;;4991352;28;20456;-69
2024/02/29 02:42:35;;;;;;;26.40;18.83;;;6.40;99.90;;;;;;4976642;28;20101;-70
2024/02/29 02:45:02;;;;;;;20.58;13.15;;;6.40;99.90;;;;;;4991424;28;20090;-70
2024/02/29 02:47:29;;;;;;;16.42;11.00;;;6.40;99.90;;;;;;4975409;28;20050;-69
2024/02/29 02:49:56;;;;;;;14.52;9.90;;;6.50;99.90;;;;;;4991213;28;20090;-70
2024/02/29 02:52:23;;;;;;;19.98;12.35;;;6.40;99.90;;;;;;4975549;28;20400;-69
2024/02/29 02:54:50;;;;;;;21.77;13.32;;;6.50;99.90;;;;;;5007578;28;20043;-69
2024/02/29 02:57:17;;;;;;;24.30;20.27;;;6.50;99.90;;;;;;4976319;28;20448;-69
2024/02/29 02:59:44;;;;;;;19.92;11.20;;;6.50;99.90;;;;;;5007474;28;20098;-69
2024/02/29 03:02:11;;;;;;;22.48;14.60;;;6.50;99.90;;;;;;4976201;28;20121;-69
2024/02/29 03:04:38;;;;;;;23.45;10.85;;;6.50;99.90;;;;;;4991328;28;20481;-70
2024/02/29 03:07:05;;;;;;;20.08;12.55;;;6.50;99.90;;;;;;4991173;28;20106;-70
2024/02/29 03:09:32;;;;;;;16.27;11.43;;;6.50;99.90;;;;;;5007197;28;20074;-69
2024/02/29 03:12:00;;;;;;;22.35;16.20;;;6.50;99.90;;;;;;4990753;28;20046;-70
2024/02/29 03:14:27;;;;;;;27.02;19.52;;;6.50;99.90;;;;;;4991114;28;20046;-69
2024/02/29 03:16:54;;;;;;;22.98;16.15;;;6.50;99.90;;;;;;4976003;28;20112;-69
2024/02/29 03:19:21;;;;;;;12.45;7.97;;;6.50;99.90;;;;;;5007011;28;20093;-69
2024/02/29 03:21:48;;;;;;;17.67;10.02;;;6.50;99.90;;;;;;4976060;28;20051;-69
2024/02/29 03:24:15;;;;;;;18.63;11.13;;;6.50;99.90;;;;;;4974474;28;20043;-69
2024/02/29 03:26:42;;;;;;;18.83;10.68;;;6.40;99.90;;;;;;4990185;28;20047;-70
2024/02/29 03:29:11;;;;;;;21.83;15.45;;;6.40;99.90;;;;;;5006782;28;20088;-69
2024/02/29 03:31:38;;;;;;;16.40;9.85;;;6.40;99.90;;;;;;5006427;28;20046;-70
2024/02/29 03:34:05;;;;;;;17.92;12.30;;;6.40;99.90;;;;;;4975516;28;20063;-69
2024/02/29 03:36:33;;;;;;;21.17;14.32;;;6.40;99.90;;;;;;4974439;28;20106;-69
2024/02/29 03:39:00;;;;;;;19.10;12.63;;;6.50;99.90;;;;;;4974274;28;20580;-69
2024/02/29 03:41:27;;;;;;;16.83;11.88;;;6.50;99.90;;;;;;5006807;28;20045;-69
2024/02/29 03:43:54;;;;;;;13.77;9.60;;;6.60;99.90;;;;;;4975681;28;20039;-69
2024/02/29 03:46:21;;;;;;;18.95;14.57;;;6.60;99.90;;;;;;4974436;28;20110;-70
2024/02/29 03:48:48;;;;;;;20.25;13.77;;;6.60;99.90;;;;;;4990566;28;20102;-69
2024/02/29 03:51:16;;;;;;;21.25;14.48;;;6.70;99.90;;;;;;4981598;28;20054;-69
2024/02/29 03:53:44;;;;;;;25.45;18.20;;;6.70;99.90;;;;;;4986044;28;20050;-70
2024/02/29 03:56:11;;;;;;;18.65;12.52;;;6.80;99.90;;;;;;5004932;28;20039;-70
2024/02/29 03:58:38;;;;;;;19.33;12.48;;;6.80;99.90;;;;;;4989889;28;20047;-69
2024/02/29 04:01:10;;;;;;;19.75;14.25;;;6.80;99.90;;;;;;4982348;28;20554;-70
2024/02/29 04:03:38;;;;;;;17.75;10.13;;;6.80;99.90;;;;;;4994740;28;20034;-70
2024/02/29 04:06:06;;;;;;;19.65;13.10;;;6.80;99.90;;;;;;4993733;28;20380;-69
2024/02/29 04:08:34;;;;;;;16.75;11.18;;;6.90;99.90;;;;;;4993436;28;20045;-69
2024/02/29 04:11:02;;;;;;;15.20;10.75;;;6.90;99.90;;;;;;4993447;28;20046;-69
2024/02/29 04:13:30;;;;;;;15.40;10.07;;;7.00;99.90;;;;;;5009586;28;20049;-69
2024/02/29 04:15:57;;;;;;;13.20;11.40;;;7.00;99.90;;;;;;4977274;28;20467;-70
2024/02/29 04:18:24;;;;;;;16.45;10.40;;;7.00;99.90;;;;;;5025692;28;20051;-69
2024/02/29 04:20:51;;;;;;;13.68;8.63;;;7.00;99.90;;;;;;4993206;28;20038;-69
2024/02/29 04:23:18;;;;;;;19.55;15.95;;;7.10;99.90;;;;;;4992974;28;20065;-70
2024/02/29 04:25:45;;;;;;;18.33;12.43;;;7.10;99.90;;;;;;4994375;28;20455;-69
2024/02/29 04:28:14;;;;;;;15.40;9.30;;;7.10;99.90;;;;;;4976499;28;20057;-69
2024/02/29 04:30:44;;;;;;;12.35;7.28;;;7.10;99.90;;;;;;4977122;28;20120;-70
2024/02/29 04:33:13;;;;;;;16.42;10.52;;;7.10;99.90;;;;;;4990343;28;20061;-69
2024/02/29 04:35:40;;;;;;;21.08;16.45;;;7.20;99.90;;;;;;5025637;28;20414;-69
2024/02/29 04:38:07;;;;;;;13.68;10.80;;;7.20;99.90;;;;;;4991680;28;20069;-70
2024/02/29 04:40:34;;;;;;;17.38;12.23;;;7.20;99.90;;;;;;4976769;28;20050;-70
2024/02/29 04:43:01;;;;;;;14.65;10.10;;;7.10;99.90;;;;;;4993953;28;20377;-69
2024/02/29 04:45:29;;;;;;;12.77;9.20;;;7.20;99.90;;;;;;4992502;28;20408;-70
2024/02/29 04:47:57;;;;;;;11.95;7.65;;;7.20;99.90;;;;;;4992584;28;20490;-70
2024/02/29 04:50:24;;;;;;;9.38;7.25;;;7.20;99.90;;;;;;4993690;28;20391;-70
2024/02/29 04:52:51;;;;;;;11.45;7.20;;;7.20;99.90;;;;;;4993833;28;20103;-70
2024/02/29 04:55:19;;;;;;;7.13;4.22;;;7.20;99.90;;;;;;4993620;28;20088;-69
2024/02/29 04:57:46;;;;;;;13.98;10.02;;;7.30;99.90;;;;;;4992417;28;20042;-71
2024/02/29 05:00:13;;;;;;;11.82;8.10;;;7.30;99.90;;;;;;4992258;28;20072;-70
2024/02/29 05:02:40;;;;;;;12.48;8.57;;;7.30;99.90;;;;;;4993761;28;20050;-70
2024/02/29 05:05:08;;;;;;;8.75;7.32;;;7.30;99.90;;;;;;4992280;28;20447;-70
2024/02/29 05:07:35;;;;;;;9.35;7.82;;;7.30;99.90;;;;;;4991958;28;20104;-69
2024/02/29 05:10:02;;;;;;;15.60;10.02;;;7.30;99.90;;;;;;4993457;28;20431;-69
2024/02/29 05:12:29;;;;;;;10.90;6.07;;;7.30;99.90;;;;;;4992104;28;20104;-69
2024/02/29 05:14:56;;;;;;;11.27;5.53;;;7.30;99.90;;;;;;4993372;28;20074;-69
2024/02/29 05:17:23;;;;;;;12.13;9.77;;;7.40;99.90;;;;;;4991831;28;20105;-69
2024/02/29 05:19:51;;;;;;;8.63;6.70;;;7.40;99.90;;;;;;4975960;28;20046;-69
2024/02/29 05:22:19;;;;;;;7.55;5.55;;;7.40;99.90;;;;;;4993040;28;20035;-70
2024/02/29 05:24:46;;;;;;;11.23;7.05;;;7.40;99.90;;;;;;4991925;28;20412;-70
2024/02/29 05:27:13;;;;;;;9.63;6.75;;;7.40;99.90;;;;;;4993267;28;20153;-69
2024/02/29 05:29:41;;;;;;;10.57;8.32;;;7.50;99.90;;;;;;4991945;28;20089;-69
2024/02/29 05:32:07;;;;;;;12.70;9.18;;;7.40;99.90;;;;;;4993196;28;20046;-70
2024/02/29 05:34:34;;;;;;;7.95;6.35;;;7.40;99.90;;;;;;4991710;28;20093;-70
2024/02/29 05:37:02;;;;;;;10.73;5.57;;;7.40;99.90;;;;;;4993133;28;20097;-69
2024/02/29 05:39:30;;;;;;;12.02;9.23;;;7.50;99.90;;;;;;4993023;28;20468;-70
2024/02/29 05:41:57;;;;;;;8.07;5.10;;;7.40;99.90;;;;;;4993099;28;20070;-69
2024/02/29 05:44:24;;;;;;;12.43;9.75;;;7.60;99.90;;;;;;4991675;28;20050;-69
2024/02/29 05:46:51;;;;;;;11.45;7.60;;;7.50;99.90;;;;;;4991721;28;20054;-69
2024/02/29 05:49:18;;;;;;;8.80;7.05;;;7.50;99.90;;;;;;4992433;28;20042;-70
2024/02/29 05:51:45;;;;;;;16.83;10.40;;;7.50;99.90;;;;;;4991899;28;20101;-69
2024/02/29 05:54:12;;;;;;;10.40;6.97;;;7.40;99.90;;;;;;4993011;28;20506;-70
2024/02/29 05:56:39;;;;;;;10.73;7.10;;;7.50;99.90;;;;;;4991408;28;20117;-69
2024/02/29 05:59:06;;;;;;;7.10;4.88;;;7.50;99.90;;;;;;4992941;28;20039;-69
2024/02/29 06:01:33;;;;;;;9.45;7.15;;;7.50;99.90;;;;;;4991230;28;20058;-69
2024/02/29 06:04:01;;;;;;;11.70;9.45;;;7.50;99.90;;;;;;4992666;28;20039;-69
2024/02/29 06:06:28;;;;;;;13.70;8.55;;;7.50;99.90;;;;;;5006430;28;20046;-70
2024/02/29 06:08:55;;;;;;;11.20;8.90;;;7.50;99.90;;;;;;4992886;28;20046;-69
2024/02/29 06:11:22;;;;;;;11.75;9.00;;;7.50;99.90;;;;;;4991481;28;20051;-69
2024/02/29 06:13:49;;;;;;;8.93;6.15;;;7.50;99.90;;;;;;4991639;28;20042;-69
2024/02/29 06:16:16;;;;;;;10.25;8.13;;;7.50;99.90;;;;;;4991564;28;20049;-69
2024/02/29 06:18:46;;;;;;;11.10;6.43;;;7.60;99.90;;;;;;4991369;28;20046;-69
2024/02/29 06:21:13;;;;;;;9.90;7.72;;;7.50;99.90;;;;;;4992798;28;20038;-69
2024/02/29 06:23:40;;;;;;;6.10;4.72;;;7.50;99.90;;;;;;5007517;28;20043;-69
2024/02/29 06:26:07;;;;;;;13.40;10.60;;;7.50;99.90;;;;;;4992694;28;20510;-70
2024/02/29 06:28:34;;;;;;;9.35;7.55;;;7.50;99.90;;;;;;4992438;28;20046;-70
2024/02/29 06:31:01;;;;;;;9.55;5.95;;;7.50;99.90;;;;;;5007686;28;20108;-69
2024/02/29 06:33:28;;;;;;;8.15;5.28;;;7.50;99.90;;;;;;5007259;28;20046;-69
2024/02/29 06:35:55;;;;;;;10.23;5.95;;;7.50;99.90;;;;;;4991317;28;20077;-70
2024/02/29 06:38:22;;;;;;;11.50;8.10;;;7.70;99.90;;;;;;4992494;28;20064;-69
2024/02/29 06:40:49;;;;;;;10.77;9.65;;;7.50;99.90;;;;;;4992412;28;20443;-69
2024/02/29 06:43:17;;;;;;;8.98;7.00;;;7.50;99.90;;;;;;4992437;28;20038;-70
2024/02/29 06:45:49;;;;;;;8.32;7.35;;;7.50;99.90;;;;;;4991223;28;20877;-69
2024/02/29 06:48:17;;;;;;;10.77;6.70;;;7.40;99.90;;;;;;5007571;28;20047;-69
2024/02/29 06:50:45;;;;;;;10.90;8.15;;;7.60;99.90;;;;;;5007244;28;20081;-69
2024/02/29 06:53:13;;;;;;;13.32;10.13;;;7.40;99.90;;;;;;5007442;28;20492;-69
2024/02/29 06:55:40;;;;;;;13.07;10.27;;;7.30;99.90;;;;;;5023602;28;20498;-69
2024/02/29 06:58:07;;;;;;;12.30;9.75;;;7.20;99.90;;;;;;5023622;28;20042;-70
2024/02/29 07:00:34;;;;;;;12.15;6.22;;;7.10;99.90;;;;;;4993444;28;20039;-69
2024/02/29 07:03:02;;;;;;;9.95;7.22;;;7.00;99.90;;;;;;4994491;28;20046;-69
2024/02/29 07:05:29;;;;;;;9.88;7.65;;;6.90;99.90;;;;;;5010613;28;20046;-69
2024/02/29 07:07:58;;;;;;;13.95;6.75;;;6.80;99.90;;;;;;4995725;28;20038;-69
2024/02/29 07:10:25;;;;;;;12.02;8.18;;;6.80;99.90;;;;;;4994468;28;20050;-69
2024/02/29 07:12:52;;;;;;;12.68;9.90;;;6.80;99.90;;;;;;5010399;28;20050;-69
2024/02/29 07:15:19;;;;;;;12.38;8.35;;;6.70;99.90;;;;;;4995644;28;20065;-69
2024/02/29 07:17:46;;;;;;;12.90;7.82;;;6.70;99.90;;;;;;4994164;28;20051;-70
2024/02/29 07:20:13;;;;;;;13.93;11.13;;;6.70;99.90;;;;;;4994359;28;20403;-69
2024/02/29 07:22:45;;;;;;;16.02;10.93;;;6.70;99.90;;;;;;5010224;28;20038;-69
2024/02/29 07:25:13;;;;;;;7.30;6.03;;;6.70;99.90;;;;;;5010487;28;20038;-69
2024/02/29 07:27:43;;;;;;;11.95;10.55;;;6.70;99.90;;;;;;4995215;28;20046;-70
2024/02/29 07:30:10;;;;;;;14.18;10.88;;;6.60;99.90;;;;;;4995469;28;20470;-69
2024/02/29 07:32:37;;;;;;;11.52;7.65;;;6.60;99.90;;;;;;4993505;28;20496;-69
2024/02/29 07:35:05;;;;;;;12.98;9.25;;;6.60;99.90;;;;;;5010315;28;20058;-69
2024/02/29 07:37:32;;;;;;;14.85;9.43;;;6.60;99.90;;;;;;4995071;28;20042;-69
2024/02/29 07:39:59;;;;;;;10.45;7.43;;;6.60;99.90;;;;;;4994022;28;20042;-70
2024/02/29 07:42:27;;;;;;;9.32;7.63;;;6.60;99.90;;;;;;4995021;28;20041;-70
2024/02/29 07:44:54;;;;;;;12.13;7.57;;;6.60;99.90;;;;;;4993459;28;20137;-70
2024/02/29 07:47:21;;;;;;;15.57;10.95;;;6.60;99.90;;;;;;4993836;28;20082;-71
2024/02/29 07:49:49;;;;;;;13.57;11.02;;;6.60;99.90;;;;;;4994684;28;20038;-70
2024/02/29 07:52:16;;;;;;;9.25;6.38;;;6.60;99.90;;;;;;4994817;28;20055;-70
2024/02/29 07:54:45;;;;;;;12.00;10.32;;;6.70;99.90;;;;;;5009612;28;20419;-70
2024/02/29 07:57:12;;;;;;;11.07;7.82;;;6.70;99.90;;;;;;5009769;28;20050;-70
2024/02/29 07:59:39;;;;;;;9.65;7.03;;;6.70;99.90;;;;;;5009512;28;20133;-70
2024/02/29 08:02:07;;;;;;;11.68;7.88;;;6.70;99.90;;;;;;4994617;28;20046;-70
2024/02/29 08:04:34;;;;;;;11.30;8.50;;;6.70;99.90;;;;;;4993349;28;20065;-69
2024/02/29 08:07:02;;;;;;;13.07;8.60;;;6.70;99.90;;;;;;4993529;28;20047;-69
2024/02/29 08:09:29;;;;;;;12.38;7.90;;;6.80;99.90;;;;;;4993450;28;20043;-70
2024/02/29 08:11:56;;;;;;;14.02;8.63;;;6.80;99.90;;;;;;4992817;28;20050;-70
2024/02/29 08:14:24;;;;;;;10.38;8.35;;;6.80;99.90;;;;;;4994548;28;20050;-70
2024/02/29 08:16:51;;;;;;;10.65;7.65;;;6.90;99.90;;;;;;4993066;28;20043;-70
2024/02/29 08:19:18;;;;;;;8.95;6.25;;;6.90;99.90;;;;;;4993251;28;20034;-70
2024/02/29 08:21:45;;;;;;;13.38;11.73;;;6.90;99.90;;;;;;4994009;28;20046;-70
2024/02/29 08:24:12;;;;;;;11.98;8.77;;;6.90;99.90;;;;;;4992957;28;20046;-69
2024/02/29 08:26:39;;;;;;;9.43;5.75;;;7.00;99.90;;;;;;4992772;28;20058;-70
2024/02/29 08:29:06;;;;;;;11.65;9.73;;;7.00;99.90;;;;;;5009069;28;20515;-70
2024/02/29 08:31:33;;;;;;;9.32;6.75;;;7.00;99.90;;;;;;5009105;28;20047;-69
2024/02/29 08:34:00;;;;;;;8.45;5.35;;;7.10;99.90;;;;;;4992529;28;20046;-70
2024/02/29 08:36:29;;;;;;;8.30;5.68;;;7.10;99.90;;;;;;4992653;28;20054;-70
2024/02/29 08:38:56;;;;;;;9.40;6.38;;;7.10;99.90;;;;;;4992285;28;20053;-70
2024/02/29 08:41:23;;;;;;;7.07;5.63;;;7.20;99.90;;;;;;4993830;28;20038;-69
2024/02/29 08:43:50;;;;;;;8.57;5.78;;;7.20;99.90;;;;;;4993716;28;20049;-70
2024/02/29 08:46:17;;;;;;;15.40;10.88;;;7.30;99.90;;;;;;4992516;28;20050;-70
2024/02/29 08:48:45;;;;;;;14.52;10.95;;;7.50;99.90;;;;;;4993826;28;20591;-70
2024/02/29 08:51:12;;;;;;;9.30;6.38;;;7.30;99.90;;;;;;4976501;28;20077;-70
2024/02/29 08:53:39;;;;;;;11.75;7.20;;;7.30;99.90;;;;;;4993673;28;20121;-69
2024/02/29 08:56:06;;;;;;;11.23;8.70;;;7.30;99.90;;;;;;4993509;28;20473;-69
2024/02/29 08:58:33;;;;;;;12.60;9.65;;;7.40;99.90;;;;;;4992475;28;20124;-69
2024/02/29 09:01:03;;;;;;;8.98;6.90;;;7.40;99.90;;;;;;4993335;28;20092;-70
2024/02/29 09:03:30;;;;;;;;;;;7.40;99.90;;;;;;5009060;28;20050;-70
2024/02/29 09:05:57;;;;;;;11.48;8.18;;;7.40;99.90;;;;;;4975905;28;19928;-70
2024/02/29 09:08:24;;;;;;;12.52;10.23;;;7.40;99.90;;;;;;4976072;28;20058;-70
2024/02/29 09:10:51;;;;;;;12.40;5.13;;;7.70;99.90;;;;;;5008209;28;20488;-69
2024/02/29 09:13:18;;;;;;;10.73;9.57;;;7.50;99.90;;;;;;4992092;28;20145;-69
2024/02/29 09:15:51;;;;;;;10.90;7.53;;;7.60;99.90;;;;;;4991987;28;20069;-70
2024/02/29 09:18:18;;;;;;;9.02;6.28;;;7.80;99.90;;;;;;4992069;28;20042;-69
2024/02/29 09:20:45;;;;;;;8.77;7.35;;;7.80;99.90;;;;;;4991933;28;20097;-69
2024/02/29 09:23:12;;;;;;;10.60;8.25;;;7.90;99.90;;;;;;5007648;28;20053;-69
2024/02/29 09:25:39;;;;;;;7.60;5.57;;;7.90;99.90;;;;;;4993222;28;20042;-69
2024/02/29 09:28:06;;;;;;;12.70;9.77;;;7.90;99.90;;;;;;4991819;28;20046;-69
2024/02/29 09:30:33;;;;;;;10.85;8.35;;;7.90;99.90;;;;;;4991966;28;20074;-69
2024/02/29 09:33:00;;;;;;;10.07;7.93;;;7.90;99.90;;;;;;4992780;28;20530;-70
2024/02/29 09:35:27;;;;;;;19.67;12.20;;;7.80;99.90;;;;;;4991793;28;20479;-69
2024/02/29 09:37:54;;;;;;;15.50;10.63;;;7.90;99.90;;;;;;4992826;28;20046;-69
2024/02/29 09:40:21;;;;;;;16.33;12.93;;;7.70;99.90;;;;;;4992980;28;20041;-70
2024/02/29 09:42:48;;;;;;;9.68;7.03;;;7.70;99.90;;;;;;4991644;28;20046;-70
2024/02/29 09:45:17;;;;;;;13.73;9.75;;;7.60;99.90;;;;;;4991785;28;20046;-70
2024/02/29 09:47:45;;;;;;;12.07;6.40;;;7.70;99.90;;;;;;4991749;28;20038;-69
2024/02/29 09:50:12;;;;;;;13.77;7.70;;;7.60;99.90;;;;;;4992621;28;20049;-70
2024/02/29 09:52:39;;;;;;;13.25;9.57;;;7.60;99.90;;;;;;4991697;28;20078;-69
2024/02/29 09:55:13;;;;;;;12.75;9.88;;;7.60;99.90;;;;;;4991535;28;20104;-70
2024/02/29 09:57:41;;;;;;;9.77;5.80;;;7.60;99.90;;;;;;5007889;28;20046;-70
2024/02/29 10:00:11;;;;;;;20.60;7.50;;;7.60;99.90;;;;;;4992574;28;20049;-70
2024/02/29 10:02:42;;;;;;;13.50;8.35;;;7.60;99.90;;;;;;4991664;28;20403;-70
2024/02/29 10:05:09;;;;;;;14.90;9.98;;;7.60;99.90;;;;;;4991636;28;20113;-70
2024/02/29 10:07:50;;;;;;;12.25;7.82;;;7.80;99.90;;;;;;4991801;28;20105;-70
2024/02/29 10:10:17;;;;;;;11.50;7.50;;;7.70;99.90;;;;;;4992600;28;20070;-70
2024/02/29 10:12:52;;;;;;;12.98;9.32;;;7.60;99.90;;;;;;5008029;28;20139;-70
2024/02/29 10:15:19;;;;;;;16.08;10.70;;;7.70;99.90;;;;;;4992810;28;20048;-70
2024/02/29 10:17:46;;;;;;;13.48;9.55;;;7.70;99.90;;;;;;5007608;28;20046;-70
2024/02/29 10:20:15;;;;;;;16.02;12.30;;;7.70;99.90;;;;;;4991172;28;20047;-69
2024/02/29 10:22:43;;;;;;;12.00;8.27;;;7.80;99.90;;;;;;4992624;28;20045;-70
2024/02/29 10:25:13;;;;;;;13.82;9.13;;;7.80;99.90;;;;;;4991124;28;20483;-70
2024/02/29 10:27:40;;;;;;;11.32;9.05;;;7.80;99.90;;;;;;4991375;28;20046;-70
2024/02/29 10:30:12;;;;;;;18.00;10.50;;;7.80;99.90;;;;;;4959199;28;20101;-70
2024/02/29 10:32:41;;;;;;;9.23;6.55;;;7.80;99.90;;;;;;4991148;28;20042;-70
2024/02/29 10:35:19;;;;;;;14.10;11.73;;;7.80;99.90;;;;;;4993385;28;20438;-70
2024/02/29 10:37:47;;;;;;;15.48;11.55;;;7.80;99.90;;;;;;4978963;28;20046;-70
2024/02/29 10:40:14;;;;;;;12.45;8.93;;;7.70;99.90;;;;;;4995894;28;20043;-70
2024/02/29 10:42:42;;;;;;;12.02;7.95;;;7.70;99.90;;;;;;4995052;28;20045;-70
2024/02/29 10:45:14;;;;;;;12.43;9.52;;;7.70;99.90;;;;;;4996222;28;20532;-70
2024/02/29 10:47:58;;;;;;;14.48;8.00;;;7.70;99.90;;;;;;4996126;28;20046;-70
2024/02/29 10:50:26;;;;;;;16.88;13.05;;;7.70;99.90;;;;;;4994875;28;20121;-70
2024/02/29 10:53:22;;;;;;;11.55;7.07;;;7.70;99.90;;;;;;4996053;28;20061;-70
2024/02/29 10:56:02;;;;;;;16.83;12.30;;;7.70;99.90;;;;;;4993046;28;20108;-70
2024/02/29 10:58:39;;;;;;;13.65;8.65;;;7.70;99.90;;;;;;4995776;28;20369;-71
2024/02/29 11:01:06;;;;;;;16.55;11.93;;;7.60;99.90;;;;;;4978280;28;20088;-71
2024/02/29 11:03:34;;;;;;;14.35;9.70;;;7.70;99.90;;;;;;4994470;28;20427;-71
2024/02/29 11:06:03;;;;;;;11.98;8.80;;;7.60;99.90;;;;;;4994371;28;20035;-71
2024/02/29 11:08:31;;;;;;;16.05;11.20;;;7.60;99.90;;;;;;4978535;28;20046;-70
2024/02/29 11:10:59;;;;;;;17.30;12.77;;;7.80;99.90;;;;;;4994378;28;20558;-71
2024/02/29 11:13:29;;;;;;;10.02;7.25;;;7.60;99.90;;;;;;4995504;28;20042;-71
2024/02/29 11:15:56;;;;;;;15.43;12.70;;;7.70;99.90;;;;;;4994198;28;20470;-70
2024/02/29 11:18:25;;;;;;;11.02;7.88;;;7.70;99.90;;;;;;4994039;28;20046;-71
2024/02/29 11:21:05;;;;;;;12.98;8.98;;;7.60;99.90;;;;;;4994407;28;20066;-71
2024/02/29 11:23:39;;;;;;;13.98;11.75;;;7.60;99.90;;;;;;4994427;28;20441;-71
2024/02/29 11:26:10;;;;;;;10.65;5.90;;;7.60;99.90;;;;;;4995169;28;20046;-71
2024/02/29 11:28:40;;;;;;;14.05;10.75;;;7.70;99.90;;;;;;4994207;28;20122;-71
2024/02/29 11:31:17;;;;;;;13.25;8.40;;;7.70;99.90;;;;;;4995212;28;20495;-70
2024/02/29 11:33:48;;;;;;;13.55;8.95;;;7.70;99.90;;;;;;4995189;28;20059;-71
2024/02/29 11:36:15;;;;;;;16.80;11.43;;;7.80;99.90;;;;;;4993903;28;20384;-70
2024/02/29 11:38:44;;;;;;;17.05;7.80;;;7.80;99.90;;;;;;4993690;28;20046;-70
2024/02/29 11:41:16;;;;;;;14.25;9.82;;;7.70;99.90;;;;;;4994997;28;20088;-71
2024/02/29 11:43:43;;;;;;;13.70;8.98;;;7.80;99.90;;;;;;4995123;28;20038;-70
2024/02/29 11:46:10;;;;;;;12.02;7.55;;;7.80;99.90;;;;;;4992921;28;20050;-70
2024/02/29 11:48:38;;;;;;;12.63;7.47;;;7.80;99.90;;;;;;4994938;28;20583;-70
2024/02/29 11:51:09;;;;;;;17.52;14.18;;;7.80;99.90;;;;;;4993401;28;20053;-71
2024/02/29 11:53:38;;;;;;;;;;;7.80;99.90;;;;;;4995329;28;20410;-71
2024/02/29 11:56:06;;;;;;;13.30;9.48;;;7.70;99.90;;;;;;4994847;28;19922;-71
2024/02/29 11:58:40;;;;;;;16.00;12.52;;;7.70;99.90;;;;;;4994784;28;20069;-71
2024/02/29 12:01:07;;;;;;;12.05;7.95;;;7.80;99.90;;;;;;4993432;28;20046;-71
2024/02/29 12:03:35;;;;;;;16.33;10.57;;;7.90;99.90;;;;;;4993484;28;20042;-70
2024/02/29 12:06:03;;;;;;;12.38;8.07;;;7.90;99.90;;;;;;4993426;28;20050;-70
2024/02/29 12:08:31;;;;;;;16.15;13.18;;;7.90;99.90;;;;;;4993002;28;20050;-70
2024/02/29 12:10:59;;;;;;;11.43;7.93;;;8.00;99.90;;;;;;4961183;28;20069;-71
2024/02/29 12:13:27;;;;;;;13.52;10.10;;;7.90;99.90;;;;;;4993173;28;20048;-71
2024/02/29 12:15:55;;;;;;;12.43;7.93;;;8.00;99.90;;;;;;4993271;28;20058;-71
2024/02/29 12:18:23;;;;;;;13.82;8.48;;;8.10;99.90;;;;;;4994162;28;20511;-71
2024/02/29 12:20:51;;;;;;;17.40;12.02;;;8.10;99.90;;;;;;4994369;28;20450;-70
2024/02/29 12:23:19;;;;;;;13.05;9.63;;;8.10;99.90;;;;;;4994045;28;20045;-71
2024/02/29 12:25:46;;;;;;;11.18;6.85;;;8.10;99.90;;;;;;4994193;28;20093;-70
2024/02/29 12:28:14;;;;;;;9.55;6.80;;;8.10;99.90;;;;;;5009110;28;20403;-71
2024/02/29 12:30:41;;;;;;;14.98;11.40;;;8.10;99.90;;;;;;4976754;28;20042;-71
2024/02/29 12:33:12;;;;;;;12.57;8.27;;;8.10;99.90;;;;;;4992665;28;20065;-71
2024/02/29 12:35:42;;;;;;;15.50;10.88;;;8.00;99.90;;;;;;4992774;28;20059;-71
2024/02/29 12:38:14;;;;;;;13.93;10.48;;;8.00;99.90;;;;;;4993977;28;20046;-71
2024/02/29 12:40:42;;;;;;;11.65;8.15;;;8.10;99.90;;;;;;5025576;28;20050;-71
2024/02/29 12:43:14;;;;;;;16.98;10.20;;;8.10;99.90;;;;;;4992670;28;20502;-71
2024/02/29 12:45:42;;;;;;;13.57;11.32;;;8.20;99.90;;;;;;4993860;28;20043;-70
2024/02/29 12:48:10;;;;;;;13.65;10.18;;;8.30;99.90;;;;;;5008753;28;20108;-71